Time;durP1;ratioP1;P1;durP2;ratioP2;P2;SDS_P1;SDS_P2;PMS_P1;PMS_P2;Temp;Humidity;BMP_temperature;BMP_pressure;BME280_temperature;BME280_humidity;BME280_pressure;Samples;Min_cycle;Max_cycle;Signal;HPM_P1;HPM_P2
2022/01/13 00:00:40;;;;;;;0.00;0.00;;;;;22.20;100440.00;;;;5085706;28;20055;-78
2022/01/13 00:03:12;;;;;;;0.00;0.00;;;;;22.00;100448.00;;;;5085895;28;20170;-78
2022/01/13 00:05:43;;;;;;;0.00;0.00;;;;;21.80;100452.00;;;;5085605;28;20072;-80
2022/01/13 00:08:12;;;;;;;0.00;0.00;;;;;21.70;100438.00;;;;5085819;28;20039;-79
2022/01/13 00:10:42;;;;;;;0.00;0.00;;;;;21.70;100428.00;;;;5084958;28;20036;-78
2022/01/13 00:13:21;;;;;;;0.00;0.00;;;;;21.70;100449.00;;;;5084556;28;20560;-79
2022/01/13 00:16:23;;;;;;;0.00;0.00;;;;;21.80;100451.00;;;;5083389;28;20119;-79
2022/01/13 00:18:49;;;;;;;0.00;0.00;;;;;21.80;100471.00;;;;5081705;28;20044;-79
2022/01/13 00:23:54;;;;;;;0.00;0.00;;;;;21.80;100453.00;;;;5080123;28;20032;-78
2022/01/13 00:26:25;;;;;;;0.00;0.00;;;;;22.10;100458.00;;;;5086137;28;20050;-79
2022/01/13 00:28:59;;;;;;;0.00;0.00;;;;;22.10;100478.00;;;;5089485;28;20032;-79
2022/01/13 00:31:33;;;;;;;0.00;0.00;;;;;22.00;100480.00;;;;5089467;28;20048;-79
2022/01/13 00:34:06;;;;;;;0.00;0.00;;;;;21.80;100485.00;;;;5088955;28;20042;-79
2022/01/13 00:36:39;;;;;;;0.00;0.00;;;;;21.70;100484.00;;;;5088206;28;20036;-78
2022/01/13 00:39:10;;;;;;;0.00;0.00;;;;;21.70;100478.00;;;;5085984;28;20036;-78
2022/01/13 00:41:40;;;;;;;0.00;0.00;;;;;21.70;100483.00;;;;5088801;28;20403;-78
2022/01/13 00:44:10;;;;;;;0.00;0.00;;;;;21.70;100485.00;;;;5086325;28;20054;-78
2022/01/13 00:46:44;;;;;;;0.00;0.00;;;;;21.50;100481.00;;;;5088950;28;20043;-79
2022/01/13 00:49:15;;;;;;;0.00;0.00;;;;;21.30;100484.00;;;;5086697;28;20040;-77
2022/01/13 00:51:44;;;;;;;0.00;0.00;;;;;21.10;100478.00;;;;5088323;28;20511;-77
2022/01/13 00:54:14;;;;;;;0.00;0.00;;;;;21.10;100496.00;;;;5088347;28;20079;-79
2022/01/13 00:56:43;;;;;;;0.00;0.00;;;;;21.10;100487.00;;;;5086900;28;20040;-79
2022/01/13 00:59:15;;;;;;;0.00;0.00;;;;;21.20;100484.00;;;;5088463;28;20085;-78
2022/01/13 01:01:48;;;;;;;0.00;0.00;;;;;21.20;100476.00;;;;5087769;28;20055;-78
2022/01/13 01:04:19;;;;;;;0.00;0.00;;;;;21.30;100473.00;;;;5085892;28;20515;-77
2022/01/13 01:06:49;;;;;;;0.00;0.00;;;;;21.10;100489.00;;;;5088830;28;20048;-78
2022/01/13 01:09:35;;;;;;;0.00;0.00;;;;;20.90;100476.00;;;;5089158;28;20282;-77
2022/01/13 01:12:09;;;;;;;0.10;0.10;;;;;20.80;100481.00;;;;5087868;28;20537;-77
2022/01/13 01:14:45;;;;;;;0.00;0.00;;;;;20.70;100492.00;;;;5088044;28;20186;-76
2022/01/13 01:17:16;;;;;;;0.00;0.00;;;;;20.60;100482.00;;;;5088624;28;20070;-78
2022/01/13 01:19:49;;;;;;;0.00;0.00;;;;;20.40;100485.00;;;;5087818;28;20048;-77
2022/01/13 01:27:36;;;;;;;0.00;0.00;;;;;21.10;100476.00;;;;5088599;28;20487;-77
2022/01/13 01:30:54;;;;;;;0.00;0.00;;;;;21.10;100480.00;;;;5088865;28;20605;-76
2022/01/13 01:33:02;;;;;;;0.00;0.00;;;;;21.10;100493.00;;;;5083946;28;20056;-77
2022/01/13 01:35:31;;;;;;;0.00;0.00;;;;;21.10;100491.00;;;;5087966;28;20064;-77
2022/01/13 01:38:01;;;;;;;0.00;0.00;;;;;21.00;100495.00;;;;5087604;28;20048;-78
2022/01/13 01:40:31;;;;;;;0.00;0.00;;;;;20.80;100500.00;;;;5070531;28;20060;-78
2022/01/13 01:43:00;;;;;;;0.00;0.00;;;;;20.70;100502.00;;;;5088736;28;20059;-78
2022/01/13 01:45:33;;;;;;;0.00;0.00;;;;;20.70;100494.00;;;;5088027;28;20423;-79
2022/01/13 01:48:04;;;;;;;0.00;0.00;;;;;20.70;100489.00;;;;5087792;28;20040;-78
2022/01/13 01:50:37;;;;;;;0.00;0.00;;;;;20.60;100488.00;;;;5087192;28;20111;-78
2022/01/13 01:53:07;;;;;;;0.00;0.00;;;;;20.50;100494.00;;;;5088008;28;20086;-78
2022/01/13 01:55:36;;;;;;;0.00;0.00;;;;;20.40;100501.00;;;;5088036;28;20232;-79
2022/01/13 01:58:08;;;;;;;0.00;0.00;;;;;20.30;100485.00;;;;5088330;28;20506;-78
2022/01/13 02:00:38;;;;;;;0.00;0.00;;;;;20.20;100487.00;;;;5069521;28;20097;-78
2022/01/13 02:03:08;;;;;;;0.00;0.00;;;;;20.30;100496.00;;;;5087900;28;20065;-79
2022/01/13 02:05:37;;;;;;;0.00;0.00;;;;;20.20;100491.00;;;;5087872;28;20071;-78
2022/01/13 02:08:07;;;;;;;0.00;0.00;;;;;20.10;100494.00;;;;5088398;28;20044;-79
2022/01/13 02:10:36;;;;;;;0.00;0.00;;;;;20.00;100484.00;;;;5086541;28;20051;-78
2022/01/13 02:13:10;;;;;;;0.00;0.00;;;;;20.00;100482.00;;;;5086926;28;20040;-78
2022/01/13 02:15:59;;;;;;;0.00;0.00;;;;;20.00;100477.00;;;;5086236;28;20062;-79
2022/01/13 02:18:33;;;;;;;0.00;0.00;;;;;19.90;100489.00;;;;5088162;28;20051;-79
2022/01/13 02:21:04;;;;;;;0.00;0.00;;;;;19.90;100472.00;;;;5087655;28;20044;-78
2022/01/13 02:23:37;;;;;;;0.00;0.00;;;;;19.70;100497.00;;;;5087511;28;20131;-78
2022/01/13 02:26:09;;;;;;;0.00;0.00;;;;;19.70;100476.00;;;;5087971;28;20063;-78
2022/01/13 02:28:38;;;;;;;;;;;;;19.70;100494.00;;;;5087618;28;20132;-78
2022/01/13 02:31:08;;;;;;;0.00;0.00;;;;;19.70;100475.00;;;;5087609;28;19924;-78
2022/01/13 02:33:38;;;;;;;0.00;0.00;;;;;19.70;100488.00;;;;5087033;28;20522;-78
2022/01/13 02:36:09;;;;;;;0.00;0.00;;;;;19.60;100485.00;;;;5087500;28;20094;-78
2022/01/13 02:38:38;;;;;;;0.00;0.00;;;;;19.50;100476.00;;;;5087106;28;20058;-78
2022/01/13 02:41:08;;;;;;;0.00;0.00;;;;;19.40;100490.00;;;;5087069;28;20062;-78
2022/01/13 02:43:37;;;;;;;0.00;0.00;;;;;19.30;100484.00;;;;5085517;28;20052;-78
2022/01/13 02:49:13;;;;;;;0.00;0.00;;;;;19.40;100476.00;;;;5004392;28;20045;-78
2022/01/13 02:51:46;;;;;;;0.00;0.00;;;;;19.40;100466.00;;;;5075133;28;20044;-78
2022/01/13 02:54:16;;;;;;;0.00;0.00;;;;;19.30;100461.00;;;;5087379;28;20054;-79
2022/01/13 02:56:46;;;;;;;0.50;0.40;;;;;19.30;100464.00;;;;5086935;28;20052;-78
2022/01/13 02:59:15;;;;;;;0.00;0.00;;;;;19.30;100467.00;;;;5085628;28;20036;-78
2022/01/13 03:01:45;;;;;;;0.00;0.00;;;;;19.20;100447.00;;;;5086531;28;20048;-78
2022/01/13 03:04:14;;;;;;;0.00;0.00;;;;;19.20;100455.00;;;;5086653;28;20101;-78
2022/01/13 03:06:44;;;;;;;0.00;0.00;;;;;19.20;100448.00;;;;5087139;28;20101;-78
2022/01/13 03:09:14;;;;;;;0.00;0.00;;;;;19.10;100450.00;;;;5086807;28;20048;-78
2022/01/13 03:11:45;;;;;;;0.00;0.00;;;;;19.10;100442.00;;;;5086726;28;20044;-78
2022/01/13 03:14:15;;;;;;;0.22;0.22;;;;;19.10;100442.00;;;;5087585;28;20047;-78
2022/01/13 03:16:45;;;;;;;0.00;0.00;;;;;19.00;100452.00;;;;5086547;28;20406;-78
2022/01/13 03:19:15;;;;;;;0.00;0.00;;;;;19.00;100438.00;;;;5086943;28;20406;-78
2022/01/13 03:21:45;;;;;;;0.00;0.00;;;;;19.00;100426.00;;;;5086193;28;20043;-78
2022/01/13 03:24:14;;;;;;;0.00;0.00;;;;;19.00;100436.00;;;;5086982;28;20044;-78
2022/01/13 03:26:46;;;;;;;0.00;0.00;;;;;19.00;100434.00;;;;5087277;28;20040;-78
2022/01/13 03:29:19;;;;;;;0.00;0.00;;;;;19.10;100437.00;;;;5086899;28;20047;-77
2022/01/13 03:31:49;;;;;;;0.00;0.00;;;;;19.20;100432.00;;;;5086439;28;20051;-79
2022/01/13 03:34:19;;;;;;;0.00;0.00;;;;;19.20;100431.00;;;;5086425;28;20048;-78
2022/01/13 03:36:49;;;;;;;0.00;0.00;;;;;19.20;100432.00;;;;5086566;28;20048;-78
2022/01/13 03:39:19;;;;;;;0.00;0.00;;;;;19.10;100434.00;;;;5086528;28;20040;-78
2022/01/13 03:41:48;;;;;;;0.00;0.00;;;;;19.00;100424.00;;;;5086529;28;20447;-78
2022/01/13 03:44:27;;;;;;;0.00;0.00;;;;;18.90;100443.00;;;;5086540;28;20040;-78
2022/01/13 03:47:02;;;;;;;0.00;0.00;;;;;18.90;100439.00;;;;5086703;28;20127;-78
2022/01/13 03:49:33;;;;;;;0.00;0.00;;;;;18.70;100433.00;;;;5086425;28;20040;-77
2022/01/13 03:52:04;;;;;;;0.00;0.00;;;;;18.70;100444.00;;;;5086039;28;20052;-78
2022/01/13 03:54:36;;;;;;;;;;;;;18.80;100441.00;;;;5085551;28;20055;-78
2022/01/13 03:57:32;;;;;;;0.00;0.00;;;;;18.70;100443.00;;;;5085931;28;20015;-78
2022/01/13 04:00:42;;;;;;;0.00;0.00;;;;;18.60;100428.00;;;;5086243;28;20054;-78
2022/01/13 04:03:12;;;;;;;0.00;0.00;;;;;18.70;100416.00;;;;5090419;28;20555;-78
2022/01/13 04:06:04;;;;;;;0.00;0.00;;;;;18.70;100420.00;;;;5090204;28;20055;-79
2022/01/13 04:08:34;;;;;;;0.00;0.00;;;;;18.80;100425.00;;;;5090084;28;20089;-78
2022/01/13 04:11:06;;;;;;;0.00;0.00;;;;;18.90;100422.00;;;;5090006;28;20160;-79
2022/01/13 04:16:22;;;;;;;0.00;0.00;;;;;19.00;100426.00;;;;5089768;28;20036;-79
2022/01/13 04:18:54;;;;;;;0.00;0.00;;;;;18.90;100424.00;;;;5090268;28;20046;-78
2022/01/13 04:21:24;;;;;;;0.00;0.00;;;;;18.80;100409.00;;;;5090100;28;20449;-78
2022/01/13 04:23:56;;;;;;;0.00;0.00;;;;;18.70;100393.00;;;;5089273;28;20048;-78
2022/01/13 04:26:31;;;;;;;0.00;0.00;;;;;18.70;100408.00;;;;5089676;28;20036;-78
2022/01/13 04:29:30;;;;;;;0.00;0.00;;;;;18.60;100405.00;;;;5089988;28;20040;-79
2022/01/13 04:31:55;;;;;;;0.00;0.00;;;;;18.60;100398.00;;;;5089716;28;20046;-79
2022/01/13 04:34:26;;;;;;;0.00;0.00;;;;;18.60;100410.00;;;;5090012;28;20540;-78
2022/01/13 04:36:58;;;;;;;0.00;0.00;;;;;18.50;100417.00;;;;5089517;28;20073;-78
2022/01/13 04:39:29;;;;;;;0.00;0.00;;;;;18.40;100407.00;;;;5089911;28;20113;-78
2022/01/13 04:41:59;;;;;;;0.00;0.00;;;;;18.30;100400.00;;;;5089956;28;20131;-79
2022/01/13 04:44:28;;;;;;;0.00;0.00;;;;;18.20;100402.00;;;;5089563;28;20054;-79
2022/01/13 04:46:58;;;;;;;0.00;0.00;;;;;18.20;100407.00;;;;5089048;28;20059;-78
2022/01/13 04:49:27;;;;;;;0.00;0.00;;;;;18.20;100403.00;;;;5089128;28;20044;-79
2022/01/13 04:51:57;;;;;;;0.00;0.00;;;;;18.20;100407.00;;;;5088921;28;20052;-79
2022/01/13 04:54:26;;;;;;;0.00;0.00;;;;;18.10;100398.00;;;;5088177;28;20130;-79
2022/01/13 04:57:14;;;;;;;0.00;0.00;;;;;18.10;100410.00;;;;5089587;28;20048;-79
2022/01/13 04:59:45;;;;;;;0.00;0.00;;;;;18.00;100408.00;;;;5088150;28;20127;-79
2022/01/13 05:02:16;;;;;;;0.00;0.00;;;;;18.10;100410.00;;;;5089520;28;20048;-79
2022/01/13 05:04:46;;;;;;;0.00;0.00;;;;;18.10;100395.00;;;;5089289;28;20050;-78
2022/01/13 05:07:15;;;;;;;0.00;0.00;;;;;18.10;100407.00;;;;5089321;28;20048;-78
2022/01/13 05:09:45;;;;;;;0.00;0.00;;;;;17.90;100408.00;;;;5087644;28;20553;-79
2022/01/13 05:12:17;;;;;;;0.00;0.00;;;;;17.90;100386.00;;;;5088455;28;20052;-79
2022/01/13 05:14:52;;;;;;;0.00;0.00;;;;;17.90;100400.00;;;;5089108;28;20097;-78
2022/01/13 05:20:16;;;;;;;0.00;0.00;;;;;17.90;100397.00;;;;5088914;28;20556;-78
2022/01/13 05:22:45;;;;;;;0.00;0.00;;;;;17.90;100405.00;;;;5089056;28;20093;-78
2022/01/13 05:25:16;;;;;;;0.00;0.00;;;;;17.80;100408.00;;;;5088466;28;20054;-78
2022/01/13 05:27:47;;;;;;;0.00;0.00;;;;;17.70;100410.00;;;;5088525;28;20046;-79
2022/01/13 05:30:19;;;;;;;0.00;0.00;;;;;17.80;100398.00;;;;5088685;28;20127;-78
2022/01/13 05:32:49;;;;;;;0.00;0.00;;;;;17.80;100407.00;;;;5088779;28;20353;-77
2022/01/13 05:35:24;;;;;;;0.00;0.00;;;;;17.80;100402.00;;;;5087312;28;20044;-77
2022/01/13 05:37:54;;;;;;;0.00;0.00;;;;;17.80;100405.00;;;;5088847;28;20036;-79
2022/01/13 05:40:24;;;;;;;0.00;0.00;;;;;17.70;100412.00;;;;5088630;28;20841;-78
2022/01/13 05:42:54;;;;;;;0.00;0.00;;;;;17.80;100410.00;;;;5086774;28;20048;-79
2022/01/13 05:45:29;;;;;;;0.00;0.00;;;;;17.80;100399.00;;;;5087830;28;20127;-78
2022/01/13 05:48:02;;;;;;;0.00;0.00;;;;;17.70;100395.00;;;;5088562;28;20044;-79
2022/01/13 05:50:33;;;;;;;0.00;0.00;;;;;17.70;100402.00;;;;5088622;28;20044;-78
2022/01/13 05:53:05;;;;;;;0.00;0.00;;;;;17.70;100401.00;;;;5089035;28;20593;-78
2022/01/13 05:55:35;;;;;;;0.00;0.00;;;;;17.80;100396.00;;;;5087128;28;20051;-80
2022/01/13 05:58:05;;;;;;;0.00;0.00;;;;;17.80;100398.00;;;;5087742;28;20055;-79
2022/01/13 06:00:35;;;;;;;0.00;0.00;;;;;17.70;100388.00;;;;5088029;28;20129;-80
2022/01/13 06:03:04;;;;;;;0.00;0.00;;;;;17.70;100391.00;;;;5087538;28;20522;-79
2022/01/13 06:05:35;;;;;;;0.00;0.00;;;;;17.60;100389.00;;;;5087851;28;20465;-80
2022/01/13 06:08:05;;;;;;;0.00;0.00;;;;;17.60;100403.00;;;;5088139;28;20043;-79
2022/01/13 06:10:34;;;;;;;0.00;0.00;;;;;17.50;100412.00;;;;5088081;28;20036;-80
2022/01/13 06:13:03;;;;;;;0.00;0.00;;;;;17.50;100399.00;;;;5087250;28;20055;-80
2022/01/13 06:15:34;;;;;;;0.00;0.00;;;;;17.50;100402.00;;;;5086682;28;20056;-79
2022/01/13 06:18:10;;;;;;;0.00;0.00;;;;;17.50;100407.00;;;;5087621;28;20125;-79
2022/01/13 06:20:40;;;;;;;0.00;0.00;;;;;17.60;100418.00;;;;5085978;28;20557;-79
2022/01/13 06:23:15;;;;;;;0.00;0.00;;;;;17.50;100409.00;;;;5087981;28;20063;-79
2022/01/13 06:25:44;;;;;;;0.00;0.00;;;;;17.50;100416.00;;;;5087095;28;20032;-78
2022/01/13 06:28:14;;;;;;;0.00;0.00;;;;;17.50;100413.00;;;;5087476;28;20093;-79
2022/01/13 06:30:43;;;;;;;0.00;0.00;;;;;17.50;100429.00;;;;5087221;28;20052;-79
2022/01/13 06:33:13;;;;;;;0.00;0.00;;;;;17.50;100435.00;;;;5086970;28;20113;-80
2022/01/13 06:35:42;;;;;;;0.00;0.00;;;;;17.50;100409.00;;;;5087146;28;20037;-79
2022/01/13 06:38:12;;;;;;;0.00;0.00;;;;;17.50;100415.00;;;;5087280;28;20040;-79
2022/01/13 06:40:42;;;;;;;0.00;0.00;;;;;17.60;100413.00;;;;5087445;28;20131;-79
2022/01/13 06:43:11;;;;;;;0.00;0.00;;;;;17.60;100429.00;;;;5087389;28;20048;-79
2022/01/13 06:45:41;;;;;;;0.00;0.00;;;;;17.60;100430.00;;;;5087276;28;20105;-79
2022/01/13 06:48:11;;;;;;;0.00;0.00;;;;;17.60;100414.00;;;;5087317;28;20051;-79
2022/01/13 06:50:40;;;;;;;0.00;0.00;;;;;17.60;100420.00;;;;5087050;28;20060;-80
2022/01/13 06:53:09;;;;;;;0.00;0.00;;;;;17.50;100434.00;;;;5087431;28;20097;-78
2022/01/13 06:55:39;;;;;;;0.00;0.00;;;;;17.60;100423.00;;;;5086391;28;20044;-77
2022/01/13 06:58:08;;;;;;;0.00;0.00;;;;;17.60;100429.00;;;;5087336;28;20606;-77
2022/01/13 07:00:37;;;;;;;0.00;0.00;;;;;17.60;100418.00;;;;5086573;28;20090;-78
2022/01/13 07:03:08;;;;;;;0.00;0.00;;;;;17.60;100416.00;;;;5087030;28;20044;-78
2022/01/13 07:05:38;;;;;;;;;;;;;17.40;100427.00;;;;5087608;28;20784;-79
2022/01/13 07:08:13;;;;;;;0.00;0.00;;;;;17.20;100431.00;;;;5087017;28;19927;-80
2022/01/13 07:10:45;;;;;;;0.00;0.00;;;;;17.20;100429.00;;;;5088000;28;20392;-79
2022/01/13 07:13:15;;;;;;;0.00;0.00;;;;;17.30;100413.00;;;;5085956;28;20036;-79
2022/01/13 07:15:46;;;;;;;0.00;0.00;;;;;17.20;100428.00;;;;5086714;28;20052;-80
2022/01/13 07:18:15;;;;;;;0.00;0.00;;;;;17.00;100422.00;;;;5086616;28;20040;-78
2022/01/13 07:20:45;;;;;;;0.00;0.00;;;;;17.00;100432.00;;;;5086448;28;20068;-80
2022/01/13 07:23:15;;;;;;;0.00;0.00;;;;;17.00;100423.00;;;;5086491;28;20052;-80
2022/01/13 07:25:44;;;;;;;0.00;0.00;;;;;17.00;100430.00;;;;5086821;28;20392;-78
2022/01/13 07:28:14;;;;;;;0.00;0.00;;;;;16.90;100435.00;;;;5085755;28;20155;-78
2022/01/13 07:30:43;;;;;;;0.00;0.00;;;;;16.90;100446.00;;;;5085859;28;20147;-78
2022/01/13 07:33:13;;;;;;;0.00;0.00;;;;;16.90;100454.00;;;;5086530;28;20046;-80
2022/01/13 07:35:42;;;;;;;0.00;0.00;;;;;16.90;100457.00;;;;5086322;28;20040;-79
2022/01/13 07:38:12;;;;;;;0.00;0.00;;;;;16.90;100450.00;;;;5090302;28;20036;-80
2022/01/13 07:40:41;;;;;;;0.00;0.00;;;;;17.00;100447.00;;;;5091094;28;20055;-80
2022/01/13 07:43:16;;;;;;;0.00;0.00;;;;;17.00;100454.00;;;;5090532;28;20056;-80
2022/01/13 07:45:46;;;;;;;0.00;0.00;;;;;17.00;100452.00;;;;5091380;28;20097;-80
2022/01/13 07:48:16;;;;;;;0.00;0.00;;;;;16.90;100464.00;;;;5090164;28;20048;-77
2022/01/13 07:50:47;;;;;;;0.00;0.00;;;;;16.80;100466.00;;;;5090013;28;20400;-79
2022/01/13 07:53:17;;;;;;;;;;;;;16.70;100462.00;;;;5091127;28;20410;-77
2022/01/13 07:55:47;;;;;;;0.00;0.00;;;;;16.70;100464.00;;;;5090473;28;19985;-79
2022/01/13 07:58:17;;;;;;;0.00;0.00;;;;;16.70;100473.00;;;;5090467;28;20105;-79
2022/01/13 08:00:47;;;;;;;0.00;0.00;;;;;16.80;100479.00;;;;5090546;28;20469;-77
2022/01/13 08:03:17;;;;;;;0.00;0.00;;;;;16.70;100466.00;;;;5090911;28;20066;-80
2022/01/13 08:05:46;;;;;;;0.00;0.00;;;;;16.80;100478.00;;;;5090463;28;20483;-79
2022/01/13 08:08:16;;;;;;;0.00;0.00;;;;;16.60;100468.00;;;;5088176;28;20047;-78
2022/01/13 08:10:45;;;;;;;0.00;0.00;;;;;16.60;100474.00;;;;5090029;28;20525;-78
2022/01/13 08:13:15;;;;;;;0.00;0.00;;;;;16.50;100471.00;;;;5090413;28;20048;-78
2022/01/13 08:15:44;;;;;;;0.00;0.00;;;;;16.60;100493.00;;;;5071909;28;20174;-77
2022/01/13 08:21:04;;;;;;;0.00;0.00;;;;;16.60;100486.00;;;;5088315;28;20058;-79
2022/01/13 08:23:33;;;;;;;0.00;0.00;;;;;16.60;100486.00;;;;5089586;28;20511;-77
2022/01/13 08:26:03;;;;;;;0.00;0.00;;;;;16.60;100486.00;;;;5089600;28;20048;-80
2022/01/13 08:28:32;;;;;;;0.00;0.00;;;;;16.60;100504.00;;;;5089847;28;20048;-79
2022/01/13 08:31:05;;;;;;;0.00;0.00;;;;;16.60;100512.00;;;;5088102;28;20054;-79
2022/01/13 08:33:35;;;;;;;0.00;0.00;;;;;16.60;100524.00;;;;5089892;28;20047;-78
2022/01/13 08:36:05;;;;;;;0.00;0.00;;;;;16.60;100517.00;;;;5088759;28;20043;-79
2022/01/13 08:38:35;;;;;;;0.00;0.00;;;;;16.70;100532.00;;;;5087890;28;20044;-79
2022/01/13 08:41:06;;;;;;;0.00;0.00;;;;;16.80;100519.00;;;;5089635;28;20048;-80
2022/01/13 08:43:36;;;;;;;0.00;0.00;;;;;16.70;100517.00;;;;5089442;28;20044;-78
2022/01/13 08:46:05;;;;;;;0.00;0.00;;;;;16.70;100526.00;;;;5089239;28;20131;-77
2022/01/13 08:48:35;;;;;;;0.00;0.00;;;;;16.70;100534.00;;;;5089455;28;20426;-79
2022/01/13 08:51:05;;;;;;;0.00;0.00;;;;;16.70;100520.00;;;;5089624;28;20062;-79
2022/01/13 08:53:35;;;;;;;0.00;0.00;;;;;16.60;100533.00;;;;5089204;28;20048;-78
2022/01/13 08:56:05;;;;;;;0.00;0.00;;;;;16.80;100539.00;;;;5089290;28;20055;-79
2022/01/13 08:58:34;;;;;;;0.00;0.00;;;;;16.80;100527.00;;;;5088337;28;20525;-82
2022/01/13 09:01:04;;;;;;;0.00;0.00;;;;;16.70;100541.00;;;;5088687;28;20135;-80
2022/01/13 09:03:37;;;;;;;0.00;0.00;;;;;16.80;100549.00;;;;5089052;28;20051;-80
2022/01/13 09:06:07;;;;;;;0.00;0.00;;;;;16.90;100553.00;;;;5088204;28;20040;-81
2022/01/13 09:08:36;;;;;;;0.00;0.00;;;;;16.90;100561.00;;;;5089534;28;20040;-78
2022/01/13 09:11:06;;;;;;;0.00;0.00;;;;;17.00;100546.00;;;;5087246;28;20066;-80
2022/01/13 09:13:37;;;;;;;0.00;0.00;;;;;17.10;100570.00;;;;5087600;28;20127;-80
2022/01/13 09:16:17;;;;;;;0.00;0.00;;;;;17.20;100573.00;;;;5088652;28;20511;-79
2022/01/13 09:21:29;;;;;;;0.00;0.00;;;;;17.20;100583.00;;;;5088699;28;20040;-79
2022/01/13 09:23:58;;;;;;;0.00;0.00;;;;;17.30;100576.00;;;;5086779;28;20080;-79
2022/01/13 09:26:28;;;;;;;0.00;0.00;;;;;17.40;100596.00;;;;5088085;28;20039;-79
2022/01/13 09:28:58;;;;;;;0.00;0.00;;;;;17.50;100591.00;;;;5086932;28;20101;-78
2022/01/13 09:31:27;;;;;;;0.00;0.00;;;;;17.50;100589.00;;;;5088180;28;20040;-79
2022/01/13 09:33:57;;;;;;;0.00;0.00;;;;;17.60;100591.00;;;;5088733;28;20095;-78
2022/01/13 09:36:26;;;;;;;0.00;0.00;;;;;17.80;100589.00;;;;5088063;28;20048;-80
2022/01/13 09:38:57;;;;;;;0.00;0.00;;;;;18.00;100586.00;;;;5087013;28;20048;-79
2022/01/13 09:41:30;;;;;;;0.00;0.00;;;;;18.60;100528.00;;;;5088052;28;20055;-78
2022/01/13 09:44:04;;;;;;;0.43;0.20;;;;;22.30;100405.00;;;;5088368;28;20075;-78
2022/01/13 09:46:35;;;;;;;0.00;0.00;;;;;21.40;100550.00;;;;5087942;28;20046;-79
2022/01/13 09:49:05;;;;;;;0.00;0.00;;;;;20.00;100567.00;;;;5087471;28;20387;-81
2022/01/13 09:51:37;;;;;;;0.00;0.00;;;;;19.60;100574.00;;;;5088645;28;20800;-82
2022/01/13 09:54:07;;;;;;;0.00;0.00;;;;;19.50;100593.00;;;;5088460;28;20562;-79
2022/01/13 09:56:37;;;;;;;0.00;0.00;;;;;19.60;100592.00;;;;5088344;28;20048;-81
2022/01/13 09:59:08;;;;;;;0.00;0.00;;;;;22.70;100430.00;;;;5086954;28;20163;-77
2022/01/13 10:01:38;;;;;;;0.22;0.22;;;;;25.80;100415.00;;;;5087616;28;20048;-77
2022/01/13 10:04:08;;;;;;;0.00;0.00;;;;;25.50;100490.00;;;;5088214;28;20426;-80
2022/01/13 10:06:47;;;;;;;0.00;0.00;;;;;23.50;100564.00;;;;5087912;28;20048;-77
2022/01/13 10:09:17;;;;;;;0.00;0.00;;;;;24.90;100433.00;;;;5087894;28;20066;-77
2022/01/13 10:11:54;;;;;;;0.00;0.00;;;;;25.10;100570.00;;;;5087753;28;20071;-78
2022/01/13 10:17:07;;;;;;;0.00;0.00;;;;;21.80;100622.00;;;;5088089;28;20067;-80
2022/01/13 10:19:45;;;;;;;0.00;0.00;;;;;21.40;100624.00;;;;5087100;28;20043;-81
2022/01/13 10:22:25;;;;;;;0.00;0.00;;;;;21.20;100639.00;;;;5087259;28;20064;-78
2022/01/13 10:24:58;;;;;;;0.00;0.00;;;;;21.10;100641.00;;;;5087694;28;20051;-79
2022/01/13 10:27:30;;;;;;;0.00;0.00;;;;;21.30;100649.00;;;;5087744;28;20640;-77
2022/01/13 10:30:01;;;;;;;0.00;0.00;;;;;21.20;100649.00;;;;5087151;28;20554;-79
2022/01/13 10:32:37;;;;;;;0.00;0.00;;;;;21.40;100652.00;;;;5085548;28;20052;-80
2022/01/13 10:35:11;;;;;;;0.00;0.00;;;;;22.70;100602.00;;;;5085038;28;20040;-78
2022/01/13 10:37:42;;;;;;;0.00;0.00;;;;;23.10;100631.00;;;;5087466;28;20048;-79
2022/01/13 10:40:22;;;;;;;0.00;0.00;;;;;23.00;100639.00;;;;5085977;28;20407;-80
2022/01/13 10:45:30;;;;;;;0.00;0.00;;;;;26.40;100581.00;;;;5086842;28;20071;-80
2022/01/13 10:48:13;;;;;;;0.00;0.00;;;;;26.90;100525.00;;;;5086835;28;20425;-78
2022/01/13 10:50:50;;;;;;;0.00;0.00;;;;;27.60;100600.00;;;;5086649;28;20435;-79
2022/01/13 10:53:31;;;;;;;0.00;0.00;;;;;25.30;100607.00;;;;5087157;28;20040;-79
2022/01/13 10:56:05;;;;;;;0.00;0.00;;;;;25.20;100593.00;;;;5087183;28;20122;-78
2022/01/13 10:58:41;;;;;;;0.00;0.00;;;;;24.90;100634.00;;;;5086510;28;20156;-79
2022/01/13 11:01:14;;;;;;;0.00;0.00;;;;;24.00;100642.00;;;;5087357;28;20514;-79
2022/01/13 11:03:46;;;;;;;0.00;0.00;;;;;23.90;100644.00;;;;5086220;28;20055;-79
2022/01/13 11:06:16;;;;;;;0.00;0.00;;;;;23.90;100645.00;;;;5086837;28;20130;-78
2022/01/13 11:08:47;;;;;;;0.08;0.08;;;;;26.80;100525.00;;;;5086509;28;20151;-78
2022/01/13 11:11:28;;;;;;;0.00;0.00;;;;;32.10;100479.00;;;;5086729;28;20040;-80
2022/01/13 11:14:24;;;;;;;0.00;0.00;;;;;33.60;100476.00;;;;5086516;28;20040;-81
2022/01/13 11:16:54;;;;;;;0.00;0.00;;;;;34.20;100466.00;;;;5084085;28;20048;-78
2022/01/13 11:19:24;;;;;;;0.00;0.00;;;;;34.50;100467.00;;;;5086336;28;20215;-82
2022/01/13 11:21:54;;;;;;;0.00;0.00;;;;;34.80;100471.00;;;;5086085;28;20499;-80
2022/01/13 11:24:25;;;;;;;0.00;0.00;;;;;35.10;100461.00;;;;5084668;28;20058;-80
2022/01/13 11:26:56;;;;;;;0.00;0.00;;;;;35.40;100458.00;;;;5086911;28;20198;-82
2022/01/13 11:29:26;;;;;;;0.00;0.00;;;;;34.80;100450.00;;;;5087082;28;20064;-82
2022/01/13 11:31:57;;;;;;;0.00;0.00;;;;;35.40;100452.00;;;;5086352;28;20117;-81
2022/01/13 11:34:29;;;;;;;0.10;0.10;;;;;36.10;100439.00;;;;5085146;28;20072;-80
2022/01/13 11:36:59;;;;;;;0.00;0.00;;;;;35.70;100442.00;;;;5086023;28;20051;-81
2022/01/13 11:39:43;;;;;;;0.00;0.00;;;;;35.20;100445.00;;;;5086352;28;20033;-82
2022/01/13 11:42:15;;;;;;;0.00;0.00;;;;;35.10;100450.00;;;;5087219;28;20546;-81
2022/01/13 11:45:05;;;;;;;0.00;0.00;;;;;35.00;100443.00;;;;5086030;28;20555;-83
2022/01/13 11:47:35;;;;;;;0.00;0.00;;;;;34.50;100449.00;;;;5086305;28;20125;-83
2022/01/13 11:50:30;;;;;;;0.00;0.00;;;;;34.30;100463.00;;;;5084543;28;20044;-81
2022/01/13 11:53:00;;;;;;;1.88;1.17;;;;;34.00;100475.00;;;;5086514;28;20123;-81
2022/01/13 11:55:34;;;;;;;0.00;0.00;;;;;33.60;100490.00;;;;5085473;28;20044;-83
2022/01/13 11:58:31;;;;;;;0.00;0.00;;;;;32.60;100483.00;;;;5085001;28;20048;-82
2022/01/13 12:01:30;;;;;;;0.00;0.00;;;;;32.30;100498.00;;;;5086560;28;20131;-84
2022/01/13 12:04:02;;;;;;;;;;;;;31.70;100518.00;;;;5072034;28;20056;-82
2022/01/13 12:06:51;;;;;;;0.00;0.00;;;;;31.20;100521.00;;;;5085750;28;19924;-81
2022/01/13 12:09:39;;;;;;;0.00;0.00;;;;;31.00;100619.00;;;;5086375;28;20762;-81
2022/01/13 12:12:30;;;;;;;0.00;0.00;;;;;30.40;100630.00;;;;5086634;28;20517;-82
2022/01/13 12:15:24;;;;;;;0.98;0.25;;;;;30.30;100631.00;;;;5084476;28;20044;-82
2022/01/13 12:17:58;;;;;;;0.00;0.00;;;;;30.40;100648.00;;;;5084604;28;20059;-82
2022/01/13 12:20:59;;;;;;;0.08;0.08;;;;;30.40;100642.00;;;;5086530;28;20064;-83
2022/01/13 12:23:44;;;;;;;0.10;0.00;;;;;30.50;100648.00;;;;5089384;28;20047;-81
2022/01/13 12:26:32;;;;;;;0.00;0.00;;;;;30.50;100645.00;;;;5090236;28;20075;-84
2022/01/13 12:29:30;;;;;;;0.10;0.10;;;;;30.50;100642.00;;;;5091260;28;20032;-82
2022/01/13 12:32:04;;;;;;;0.00;0.00;;;;;30.70;100639.00;;;;5090109;28;20086;-83
2022/01/13 12:34:35;;;;;;;0.00;0.00;;;;;30.80;100648.00;;;;5088555;28;20093;-85
2022/01/13 12:37:13;;;;;;;0.00;0.00;;;;;30.90;100639.00;;;;5088423;28;20048;-83
2022/01/13 12:39:49;;;;;;;0.00;0.00;;;;;31.00;100639.00;;;;5090140;28;20055;-83
2022/01/13 12:42:25;;;;;;;0.00;0.00;;;;;31.60;100634.00;;;;5089790;28;20044;-83
2022/01/13 12:47:44;;;;;;;0.00;0.00;;;;;31.90;100644.00;;;;5090243;28;20074;-84
2022/01/13 12:50:26;;;;;;;0.00;0.00;;;;;32.00;100645.00;;;;5089709;28;20438;-82
2022/01/13 12:53:19;;;;;;;0.00;0.00;;;;;32.70;100646.00;;;;5089855;28;20040;-83
2022/01/13 12:56:08;;;;;;;0.00;0.00;;;;;32.50;100646.00;;;;5081584;28;20109;-82
2022/01/13 12:58:41;;;;;;;0.00;0.00;;;;;32.50;100642.00;;;;5089584;28;20040;-82
2022/01/13 13:01:20;;;;;;;0.00;0.00;;;;;32.50;100651.00;;;;5088588;28;20048;-83
2022/01/13 13:04:09;;;;;;;0.00;0.00;;;;;32.40;100649.00;;;;5087620;28;20048;-85
2022/01/13 13:06:47;;;;;;;0.40;0.32;;;;;32.90;100642.00;;;;5088721;28;20051;-85